sensor_id;sensor_type;location;lat;lon;timestamp;P1;durP1;ratioP1;P2;durP2;ratioP2
45236;SDS011;30973;51.442;3.580;2023-11-18T00:00:02;12.23;;;6.47;;
45236;SDS011;30973;51.442;3.580;2023-11-18T00:02:37;10.73;;;6.53;;
45236;SDS011;30973;51.442;3.580;2023-11-18T00:05:05;9.32;;;6.30;;
45236;SDS011;30973;51.442;3.580;2023-11-18T00:07:34;10.05;;;5.55;;
45236;SDS011;30973;51.442;3.580;2023-11-18T00:10:01;11.55;;;6.80;;
45236;SDS011;30973;51.442;3.580;2023-11-18T00:12:30;12.25;;;6.70;;
45236;SDS011;30973;51.442;3.580;2023-11-18T00:14:57;11.57;;;6.78;;
45236;SDS011;30973;51.442;3.580;2023-11-18T00:17:24;12.82;;;7.88;;
45236;SDS011;30973;51.442;3.580;2023-11-18T00:19:52;12.38;;;6.60;;
45236;SDS011;30973;51.442;3.580;2023-11-18T00:22:20;12.05;;;7.35;;
45236;SDS011;30973;51.442;3.580;2023-11-18T00:24:47;10.00;;;6.28;;
45236;SDS011;30973;51.442;3.580;2023-11-18T00:27:15;10.10;;;6.35;;
45236;SDS011;30973;51.442;3.580;2023-11-18T00:29:42;11.52;;;6.65;;
45236;SDS011;30973;51.442;3.580;2023-11-18T00:32:10;15.70;;;6.70;;
45236;SDS011;30973;51.442;3.580;2023-11-18T00:34:38;9.70;;;6.20;;
45236;SDS011;30973;51.442;3.580;2023-11-18T00:37:05;10.20;;;6.15;;
45236;SDS011;30973;51.442;3.580;2023-11-18T00:39:33;12.52;;;6.30;;
45236;SDS011;30973;51.442;3.580;2023-11-18T00:42:01;13.52;;;6.60;;
45236;SDS011;30973;51.442;3.580;2023-11-18T00:44:28;11.38;;;6.85;;
45236;SDS011;30973;51.442;3.580;2023-11-18T00:46:56;13.32;;;5.93;;
45236;SDS011;30973;51.442;3.580;2023-11-18T00:49:24;9.15;;;6.30;;
45236;SDS011;30973;51.442;3.580;2023-11-18T00:51:52;12.20;;;6.45;;
45236;SDS011;30973;51.442;3.580;2023-11-18T00:54:20;11.75;;;6.15;;
45236;SDS011;30973;51.442;3.580;2023-11-18T00:56:47;12.90;;;6.53;;
45236;SDS011;30973;51.442;3.580;2023-11-18T00:59:14;11.02;;;5.45;;
45236;SDS011;30973;51.442;3.580;2023-11-18T01:01:42;11.05;;;5.93;;
45236;SDS011;30973;51.442;3.580;2023-11-18T01:04:09;10.65;;;5.72;;
45236;SDS011;30973;51.442;3.580;2023-11-18T01:06:37;12.40;;;6.22;;
45236;SDS011;30973;51.442;3.580;2023-11-18T01:09:04;11.25;;;5.80;;
45236;SDS011;30973;51.442;3.580;2023-11-18T01:11:33;16.15;;;5.35;;
45236;SDS011;30973;51.442;3.580;2023-11-18T01:14:02;7.97;;;5.22;;
45236;SDS011;30973;51.442;3.580;2023-11-18T01:16:29;8.77;;;5.82;;
45236;SDS011;30973;51.442;3.580;2023-11-18T01:18:57;9.23;;;5.20;;
45236;SDS011;30973;51.442;3.580;2023-11-18T01:21:24;9.88;;;5.18;;
45236;SDS011;30973;51.442;3.580;2023-11-18T01:23:51;12.25;;;5.30;;
45236;SDS011;30973;51.442;3.580;2023-11-18T01:26:19;10.93;;;5.47;;
45236;SDS011;30973;51.442;3.580;2023-11-18T01:28:48;9.95;;;5.45;;
45236;SDS011;30973;51.442;3.580;2023-11-18T01:31:15;11.95;;;6.05;;
45236;SDS011;30973;51.442;3.580;2023-11-18T01:33:43;14.45;;;5.85;;
45236;SDS011;30973;51.442;3.580;2023-11-18T01:36:13;14.52;;;5.63;;
45236;SDS011;30973;51.442;3.580;2023-11-18T01:38:40;10.15;;;5.55;;
45236;SDS011;30973;51.442;3.580;2023-11-18T01:41:08;10.60;;;5.30;;
45236;SDS011;30973;51.442;3.580;2023-11-18T01:43:35;10.75;;;5.35;;
45236;SDS011;30973;51.442;3.580;2023-11-18T01:46:03;11.43;;;6.18;;
45236;SDS011;30973;51.442;3.580;2023-11-18T01:48:31;10.95;;;5.20;;
45236;SDS011;30973;51.442;3.580;2023-11-18T01:51:02;14.05;;;5.85;;
45236;SDS011;30973;51.442;3.580;2023-11-18T01:53:31;11.13;;;5.45;;
45236;SDS011;30973;51.442;3.580;2023-11-18T01:55:59;14.35;;;5.75;;
45236;SDS011;30973;51.442;3.580;2023-11-18T01:58:27;9.70;;;5.65;;
45236;SDS011;30973;51.442;3.580;2023-11-18T02:00:57;11.95;;;5.38;;
45236;SDS011;30973;51.442;3.580;2023-11-18T02:03:25;9.05;;;5.80;;
45236;SDS011;30973;51.442;3.580;2023-11-18T02:05:53;12.68;;;6.03;;
45236;SDS011;30973;51.442;3.580;2023-11-18T02:08:21;10.98;;;5.75;;
45236;SDS011;30973;51.442;3.580;2023-11-18T02:10:49;10.98;;;5.88;;
45236;SDS011;30973;51.442;3.580;2023-11-18T02:13:22;10.93;;;5.22;;
45236;SDS011;30973;51.442;3.580;2023-11-18T02:15:53;12.40;;;5.57;;
45236;SDS011;30973;51.442;3.580;2023-11-18T02:18:24;11.75;;;5.70;;
45236;SDS011;30973;51.442;3.580;2023-11-18T02:20:55;14.00;;;5.75;;
45236;SDS011;30973;51.442;3.580;2023-11-18T02:23:26;11.00;;;4.90;;
45236;SDS011;30973;51.442;3.580;2023-11-18T02:25:54;12.95;;;5.80;;
45236;SDS011;30973;51.442;3.580;2023-11-18T02:28:24;16.05;;;6.90;;
45236;SDS011;30973;51.442;3.580;2023-11-18T02:30:56;11.60;;;5.15;;
45236;SDS011;30973;51.442;3.580;2023-11-18T02:33:46;8.88;;;4.95;;
45236;SDS011;30973;51.442;3.580;2023-11-18T02:36:20;13.52;;;5.75;;
45236;SDS011;30973;51.442;3.580;2023-11-18T02:38:50;11.32;;;5.78;;
45236;SDS011;30973;51.442;3.580;2023-11-18T02:41:18;9.68;;;5.55;;
45236;SDS011;30973;51.442;3.580;2023-11-18T02:43:47;12.25;;;4.72;;
45236;SDS011;30973;51.442;3.580;2023-11-18T02:46:14;8.45;;;4.80;;
45236;SDS011;30973;51.442;3.580;2023-11-18T02:48:43;9.73;;;4.80;;
45236;SDS011;30973;51.442;3.580;2023-11-18T02:51:10;9.50;;;4.88;;
45236;SDS011;30973;51.442;3.580;2023-11-18T02:53:38;11.07;;;4.70;;
45236;SDS011;30973;51.442;3.580;2023-11-18T02:56:07;10.43;;;4.85;;
45236;SDS011;30973;51.442;3.580;2023-11-18T02:58:35;12.07;;;5.38;;
45236;SDS011;30973;51.442;3.580;2023-11-18T03:01:02;15.77;;;7.05;;
45236;SDS011;30973;51.442;3.580;2023-11-18T03:03:31;11.13;;;5.43;;
45236;SDS011;30973;51.442;3.580;2023-11-18T03:05:58;9.70;;;5.00;;
45236;SDS011;30973;51.442;3.580;2023-11-18T03:08:26;9.73;;;4.78;;
45236;SDS011;30973;51.442;3.580;2023-11-18T03:10:56;13.88;;;6.03;;
45236;SDS011;30973;51.442;3.580;2023-11-18T03:13:24;14.63;;;5.30;;
45236;SDS011;30973;51.442;3.580;2023-11-18T03:15:52;11.43;;;5.20;;
45236;SDS011;30973;51.442;3.580;2023-11-18T03:18:20;11.63;;;4.70;;
45236;SDS011;30973;51.442;3.580;2023-11-18T03:20:47;9.60;;;4.97;;
45236;SDS011;30973;51.442;3.580;2023-11-18T03:23:15;10.60;;;4.55;;
45236;SDS011;30973;51.442;3.580;2023-11-18T03:25:44;11.05;;;4.85;;
45236;SDS011;30973;51.442;3.580;2023-11-18T03:28:13;10.18;;;4.50;;
45236;SDS011;30973;51.442;3.580;2023-11-18T03:30:41;11.88;;;4.78;;
45236;SDS011;30973;51.442;3.580;2023-11-18T03:33:08;8.77;;;4.80;;
45236;SDS011;30973;51.442;3.580;2023-11-18T03:35:37;10.40;;;4.55;;
45236;SDS011;30973;51.442;3.580;2023-11-18T03:38:05;11.63;;;4.75;;
45236;SDS011;30973;51.442;3.580;2023-11-18T03:40:32;13.02;;;5.32;;
45236;SDS011;30973;51.442;3.580;2023-11-18T03:43:01;12.32;;;4.82;;
45236;SDS011;30973;51.442;3.580;2023-11-18T03:45:29;10.30;;;4.35;;
45236;SDS011;30973;51.442;3.580;2023-11-18T03:47:57;12.15;;;4.80;;
45236;SDS011;30973;51.442;3.580;2023-11-18T03:50:24;14.90;;;4.65;;
45236;SDS011;30973;51.442;3.580;2023-11-18T03:52:52;14.02;;;5.53;;
45236;SDS011;30973;51.442;3.580;2023-11-18T03:55:19;13.30;;;4.35;;
45236;SDS011;30973;51.442;3.580;2023-11-18T03:57:46;12.60;;;4.63;;
45236;SDS011;30973;51.442;3.580;2023-11-18T04:00:17;11.75;;;4.68;;
45236;SDS011;30973;51.442;3.580;2023-11-18T04:02:46;15.73;;;4.72;;
45236;SDS011;30973;51.442;3.580;2023-11-18T04:05:14;11.45;;;3.53;;
45236;SDS011;30973;51.442;3.580;2023-11-18T04:07:41;13.45;;;4.82;;
45236;SDS011;30973;51.442;3.580;2023-11-18T04:10:09;13.43;;;4.28;;
45236;SDS011;30973;51.442;3.580;2023-11-18T04:12:37;11.30;;;4.38;;
45236;SDS011;30973;51.442;3.580;2023-11-18T04:15:05;10.02;;;3.65;;
45236;SDS011;30973;51.442;3.580;2023-11-18T04:17:33;8.00;;;3.78;;
45236;SDS011;30973;51.442;3.580;2023-11-18T04:20:00;10.95;;;3.40;;
45236;SDS011;30973;51.442;3.580;2023-11-18T04:22:31;11.02;;;3.53;;
45236;SDS011;30973;51.442;3.580;2023-11-18T04:24:58;9.25;;;3.65;;
45236;SDS011;30973;51.442;3.580;2023-11-18T04:27:26;14.13;;;3.72;;
45236;SDS011;30973;51.442;3.580;2023-11-18T04:29:53;11.30;;;3.92;;
45236;SDS011;30973;51.442;3.580;2023-11-18T04:32:21;12.40;;;3.70;;
45236;SDS011;30973;51.442;3.580;2023-11-18T04:34:48;11.65;;;4.15;;
45236;SDS011;30973;51.442;3.580;2023-11-18T04:37:17;9.75;;;3.50;;
45236;SDS011;30973;51.442;3.580;2023-11-18T04:39:46;12.50;;;3.83;;
45236;SDS011;30973;51.442;3.580;2023-11-18T04:42:13;6.93;;;3.47;;
45236;SDS011;30973;51.442;3.580;2023-11-18T04:44:42;8.02;;;3.45;;
45236;SDS011;30973;51.442;3.580;2023-11-18T04:47:10;7.63;;;3.47;;
45236;SDS011;30973;51.442;3.580;2023-11-18T04:49:37;12.27;;;3.83;;
45236;SDS011;30973;51.442;3.580;2023-11-18T04:52:05;11.32;;;4.00;;
45236;SDS011;30973;51.442;3.580;2023-11-18T04:54:33;10.95;;;3.75;;
45236;SDS011;30973;51.442;3.580;2023-11-18T04:57:00;11.85;;;4.10;;
45236;SDS011;30973;51.442;3.580;2023-11-18T04:59:27;11.70;;;4.57;;
45236;SDS011;30973;51.442;3.580;2023-11-18T05:01:57;9.77;;;4.20;;
45236;SDS011;30973;51.442;3.580;2023-11-18T05:04:24;10.93;;;4.35;;
45236;SDS011;30973;51.442;3.580;2023-11-18T05:06:52;13.10;;;4.47;;
45236;SDS011;30973;51.442;3.580;2023-11-18T05:09:19;11.45;;;4.80;;
45236;SDS011;30973;51.442;3.580;2023-11-18T05:11:47;11.82;;;4.35;;
45236;SDS011;30973;51.442;3.580;2023-11-18T05:14:14;12.60;;;4.35;;
45236;SDS011;30973;51.442;3.580;2023-11-18T05:16:43;7.82;;;3.50;;
45236;SDS011;30973;51.442;3.580;2023-11-18T05:19:11;10.88;;;4.60;;
45236;SDS011;30973;51.442;3.580;2023-11-18T05:21:38;12.88;;;4.45;;
45236;SDS011;30973;51.442;3.580;2023-11-18T05:24:06;13.43;;;4.97;;
45236;SDS011;30973;51.442;3.580;2023-11-18T05:26:33;11.38;;;4.78;;
45236;SDS011;30973;51.442;3.580;2023-11-18T05:29:01;13.00;;;4.65;;
45236;SDS011;30973;51.442;3.580;2023-11-18T05:31:29;13.38;;;3.92;;
45236;SDS011;30973;51.442;3.580;2023-11-18T05:33:58;10.18;;;3.92;;
45236;SDS011;30973;51.442;3.580;2023-11-18T05:36:25;11.63;;;3.60;;
45236;SDS011;30973;51.442;3.580;2023-11-18T05:38:54;9.93;;;3.95;;
45236;SDS011;30973;51.442;3.580;2023-11-18T05:41:21;10.48;;;3.75;;
45236;SDS011;30973;51.442;3.580;2023-11-18T05:43:55;9.02;;;3.15;;
45236;SDS011;30973;51.442;3.580;2023-11-18T05:46:25;9.30;;;3.78;;
45236;SDS011;30973;51.442;3.580;2023-11-18T05:48:56;10.63;;;3.20;;
45236;SDS011;30973;51.442;3.580;2023-11-18T05:51:26;9.80;;;3.42;;
45236;SDS011;30973;51.442;3.580;2023-11-18T05:53:55;6.30;;;2.75;;
45236;SDS011;30973;51.442;3.580;2023-11-18T05:56:22;11.20;;;3.28;;
45236;SDS011;30973;51.442;3.580;2023-11-18T05:58:51;7.30;;;2.70;;
45236;SDS011;30973;51.442;3.580;2023-11-18T06:01:21;6.57;;;2.40;;
45236;SDS011;30973;51.442;3.580;2023-11-18T06:03:49;8.55;;;2.90;;
45236;SDS011;30973;51.442;3.580;2023-11-18T06:06:17;10.65;;;2.58;;
45236;SDS011;30973;51.442;3.580;2023-11-18T06:08:49;9.95;;;2.17;;
45236;SDS011;30973;51.442;3.580;2023-11-18T06:11:18;7.57;;;2.35;;
45236;SDS011;30973;51.442;3.580;2023-11-18T06:16:17;10.07;;;2.95;;
45236;SDS011;30973;51.442;3.580;2023-11-18T06:18:48;9.00;;;2.22;;
45236;SDS011;30973;51.442;3.580;2023-11-18T06:21:17;8.18;;;2.95;;
45236;SDS011;30973;51.442;3.580;2023-11-18T06:23:45;9.90;;;2.30;;
45236;SDS011;30973;51.442;3.580;2023-11-18T06:26:14;8.23;;;2.33;;
45236;SDS011;30973;51.442;3.580;2023-11-18T06:28:42;9.38;;;2.50;;
45236;SDS011;30973;51.442;3.580;2023-11-18T06:31:10;11.40;;;2.80;;
45236;SDS011;30973;51.442;3.580;2023-11-18T06:33:39;14.38;;;3.28;;
45236;SDS011;30973;51.442;3.580;2023-11-18T06:38:41;7.57;;;2.45;;
45236;SDS011;30973;51.442;3.580;2023-11-18T06:41:08;6.38;;;2.33;;
45236;SDS011;30973;51.442;3.580;2023-11-18T06:43:41;10.50;;;2.95;;
45236;SDS011;30973;51.442;3.580;2023-11-18T06:46:21;6.75;;;2.60;;
45236;SDS011;30973;51.442;3.580;2023-11-18T06:48:49;5.95;;;2.28;;
45236;SDS011;30973;51.442;3.580;2023-11-18T06:51:16;9.07;;;3.05;;
45236;SDS011;30973;51.442;3.580;2023-11-18T06:53:43;6.80;;;2.15;;
45236;SDS011;30973;51.442;3.580;2023-11-18T06:56:11;4.80;;;2.20;;
45236;SDS011;30973;51.442;3.580;2023-11-18T06:58:39;11.40;;;3.13;;
45236;SDS011;30973;51.442;3.580;2023-11-18T07:01:13;8.60;;;2.97;;
45236;SDS011;30973;51.442;3.580;2023-11-18T07:03:45;9.25;;;3.00;;
45236;SDS011;30973;51.442;3.580;2023-11-18T07:06:18;8.43;;;2.58;;
45236;SDS011;30973;51.442;3.580;2023-11-18T07:11:17;8.32;;;2.03;;
45236;SDS011;30973;51.442;3.580;2023-11-18T07:13:45;10.23;;;3.00;;
45236;SDS011;30973;51.442;3.580;2023-11-18T07:16:12;11.38;;;3.45;;
45236;SDS011;30973;51.442;3.580;2023-11-18T07:18:41;9.35;;;2.67;;
45236;SDS011;30973;51.442;3.580;2023-11-18T07:21:09;4.47;;;1.98;;
45236;SDS011;30973;51.442;3.580;2023-11-18T07:23:39;12.07;;;2.65;;
45236;SDS011;30973;51.442;3.580;2023-11-18T07:26:06;21.95;;;4.90;;
45236;SDS011;30973;51.442;3.580;2023-11-18T07:28:33;7.00;;;2.75;;
45236;SDS011;30973;51.442;3.580;2023-11-18T07:31:01;11.05;;;3.40;;
45236;SDS011;30973;51.442;3.580;2023-11-18T07:33:31;13.23;;;2.85;;
45236;SDS011;30973;51.442;3.580;2023-11-18T07:35:59;10.90;;;3.95;;
45236;SDS011;30973;51.442;3.580;2023-11-18T07:38:26;11.75;;;3.10;;
45236;SDS011;30973;51.442;3.580;2023-11-18T07:40:54;8.35;;;2.88;;
45236;SDS011;30973;51.442;3.580;2023-11-18T07:43:23;7.38;;;3.10;;
45236;SDS011;30973;51.442;3.580;2023-11-18T07:45:50;7.63;;;2.78;;
45236;SDS011;30973;51.442;3.580;2023-11-18T07:48:19;12.07;;;2.70;;
45236;SDS011;30973;51.442;3.580;2023-11-18T07:50:47;9.85;;;2.92;;
45236;SDS011;30973;51.442;3.580;2023-11-18T07:53:15;7.80;;;2.72;;
45236;SDS011;30973;51.442;3.580;2023-11-18T07:55:42;11.65;;;2.70;;
45236;SDS011;30973;51.442;3.580;2023-11-18T07:58:11;12.15;;;3.00;;
45236;SDS011;30973;51.442;3.580;2023-11-18T08:00:39;11.52;;;3.38;;
45236;SDS011;30973;51.442;3.580;2023-11-18T08:03:07;10.73;;;3.72;;
45236;SDS011;30973;51.442;3.580;2023-11-18T08:05:38;10.40;;;2.85;;
45236;SDS011;30973;51.442;3.580;2023-11-18T08:08:06;8.45;;;3.03;;
45236;SDS011;30973;51.442;3.580;2023-11-18T08:10:34;8.27;;;2.80;;
45236;SDS011;30973;51.442;3.580;2023-11-18T08:13:07;7.53;;;2.67;;
45236;SDS011;30973;51.442;3.580;2023-11-18T08:15:38;8.32;;;2.80;;
45236;SDS011;30973;51.442;3.580;2023-11-18T08:18:06;7.60;;;2.80;;
45236;SDS011;30973;51.442;3.580;2023-11-18T08:20:34;9.60;;;2.60;;
45236;SDS011;30973;51.442;3.580;2023-11-18T08:23:01;8.98;;;3.08;;
45236;SDS011;30973;51.442;3.580;2023-11-18T08:25:29;8.68;;;2.80;;
45236;SDS011;30973;51.442;3.580;2023-11-18T08:28:00;9.82;;;3.00;;
45236;SDS011;30973;51.442;3.580;2023-11-18T08:30:27;11.32;;;3.35;;
45236;SDS011;30973;51.442;3.580;2023-11-18T08:32:55;6.40;;;2.95;;
45236;SDS011;30973;51.442;3.580;2023-11-18T08:35:23;9.32;;;3.17;;
45236;SDS011;30973;51.442;3.580;2023-11-18T08:37:51;7.15;;;2.42;;
45236;SDS011;30973;51.442;3.580;2023-11-18T08:40:19;10.00;;;2.65;;
45236;SDS011;30973;51.442;3.580;2023-11-18T08:42:48;7.32;;;2.90;;
45236;SDS011;30973;51.442;3.580;2023-11-18T08:45:17;11.43;;;3.40;;
45236;SDS011;30973;51.442;3.580;2023-11-18T08:47:45;9.70;;;4.00;;
45236;SDS011;30973;51.442;3.580;2023-11-18T08:50:16;6.25;;;3.50;;
45236;SDS011;30973;51.442;3.580;2023-11-18T08:52:44;8.40;;;2.90;;
45236;SDS011;30973;51.442;3.580;2023-11-18T08:55:14;10.75;;;3.50;;
45236;SDS011;30973;51.442;3.580;2023-11-18T08:57:49;8.40;;;3.35;;
45236;SDS011;30973;51.442;3.580;2023-11-18T09:00:30;7.20;;;3.10;;
45236;SDS011;30973;51.442;3.580;2023-11-18T09:03:13;6.70;;;2.67;;
45236;SDS011;30973;51.442;3.580;2023-11-18T09:05:45;11.57;;;3.42;;
45236;SDS011;30973;51.442;3.580;2023-11-18T09:08:25;8.75;;;2.83;;
45236;SDS011;30973;51.442;3.580;2023-11-18T09:10:54;8.50;;;2.80;;
45236;SDS011;30973;51.442;3.580;2023-11-18T09:13:24;6.28;;;3.15;;
45236;SDS011;30973;51.442;3.580;2023-11-18T09:15:56;8.27;;;3.72;;
45236;SDS011;30973;51.442;3.580;2023-11-18T09:18:26;11.40;;;3.13;;
45236;SDS011;30973;51.442;3.580;2023-11-18T09:20:54;9.40;;;2.97;;
45236;SDS011;30973;51.442;3.580;2023-11-18T09:23:21;7.45;;;3.00;;
45236;SDS011;30973;51.442;3.580;2023-11-18T09:25:53;6.70;;;2.90;;
45236;SDS011;30973;51.442;3.580;2023-11-18T09:28:22;8.50;;;3.47;;
45236;SDS011;30973;51.442;3.580;2023-11-18T09:30:51;6.28;;;3.10;;
45236;SDS011;30973;51.442;3.580;2023-11-18T09:33:24;7.93;;;3.30;;
45236;SDS011;30973;51.442;3.580;2023-11-18T09:35:52;9.13;;;3.35;;
45236;SDS011;30973;51.442;3.580;2023-11-18T09:38:26;6.28;;;3.63;;
45236;SDS011;30973;51.442;3.580;2023-11-18T09:40:54;11.10;;;3.35;;
45236;SDS011;30973;51.442;3.580;2023-11-18T09:43:21;7.25;;;3.30;;
45236;SDS011;30973;51.442;3.580;2023-11-18T09:45:50;7.88;;;3.17;;
45236;SDS011;30973;51.442;3.580;2023-11-18T09:48:21;6.78;;;3.10;;
45236;SDS011;30973;51.442;3.580;2023-11-18T09:50:52;6.57;;;2.67;;
45236;SDS011;30973;51.442;3.580;2023-11-18T09:53:20;7.38;;;3.15;;
45236;SDS011;30973;51.442;3.580;2023-11-18T09:55:56;4.90;;;2.67;;
45236;SDS011;30973;51.442;3.580;2023-11-18T09:58:30;7.00;;;3.53;;
45236;SDS011;30973;51.442;3.580;2023-11-18T10:01:00;7.55;;;3.28;;
45236;SDS011;30973;51.442;3.580;2023-11-18T10:03:29;7.88;;;3.17;;
45236;SDS011;30973;51.442;3.580;2023-11-18T10:05:57;8.05;;;3.05;;
45236;SDS011;30973;51.442;3.580;2023-11-18T10:08:24;10.07;;;3.45;;
45236;SDS011;30973;51.442;3.580;2023-11-18T10:10:52;9.18;;;3.55;;
45236;SDS011;30973;51.442;3.580;2023-11-18T10:13:32;6.97;;;3.47;;
45236;SDS011;30973;51.442;3.580;2023-11-18T10:16:01;7.13;;;3.60;;
45236;SDS011;30973;51.442;3.580;2023-11-18T10:18:31;9.38;;;3.92;;
45236;SDS011;30973;51.442;3.580;2023-11-18T10:21:03;10.98;;;4.30;;
45236;SDS011;30973;51.442;3.580;2023-11-18T10:23:30;19.15;;;4.35;;
45236;SDS011;30973;51.442;3.580;2023-11-18T10:26:00;9.32;;;3.83;;
45236;SDS011;30973;51.442;3.580;2023-11-18T10:28:30;9.77;;;3.70;;
45236;SDS011;30973;51.442;3.580;2023-11-18T10:31:03;7.97;;;4.07;;
45236;SDS011;30973;51.442;3.580;2023-11-18T10:33:37;6.63;;;4.07;;
45236;SDS011;30973;51.442;3.580;2023-11-18T10:36:17;8.18;;;3.80;;
45236;SDS011;30973;51.442;3.580;2023-11-18T10:38:49;7.53;;;3.60;;
45236;SDS011;30973;51.442;3.580;2023-11-18T10:41:18;6.80;;;3.15;;
45236;SDS011;30973;51.442;3.580;2023-11-18T10:43:45;10.45;;;3.60;;
45236;SDS011;30973;51.442;3.580;2023-11-18T10:46:15;8.25;;;3.50;;
45236;SDS011;30973;51.442;3.580;2023-11-18T10:48:44;7.65;;;2.90;;
45236;SDS011;30973;51.442;3.580;2023-11-18T10:51:14;9.50;;;3.22;;
45236;SDS011;30973;51.442;3.580;2023-11-18T10:53:43;9.90;;;3.30;;
45236;SDS011;30973;51.442;3.580;2023-11-18T10:56:20;5.60;;;3.00;;
45236;SDS011;30973;51.442;3.580;2023-11-18T10:58:55;6.40;;;3.80;;
45236;SDS011;30973;51.442;3.580;2023-11-18T11:01:27;7.65;;;3.60;;
45236;SDS011;30973;51.442;3.580;2023-11-18T11:03:54;7.00;;;2.97;;
45236;SDS011;30973;51.442;3.580;2023-11-18T11:06:23;8.23;;;3.72;;
45236;SDS011;30973;51.442;3.580;2023-11-18T11:08:51;7.53;;;3.45;;
45236;SDS011;30973;51.442;3.580;2023-11-18T11:11:19;8.93;;;3.60;;
45236;SDS011;30973;51.442;3.580;2023-11-18T11:14:06;5.63;;;2.67;;
45236;SDS011;30973;51.442;3.580;2023-11-18T11:16:40;7.38;;;2.60;;
45236;SDS011;30973;51.442;3.580;2023-11-18T11:21:46;4.53;;;2.70;;
45236;SDS011;30973;51.442;3.580;2023-11-18T11:26:50;8.23;;;2.95;;
45236;SDS011;30973;51.442;3.580;2023-11-18T11:29:36;5.30;;;2.13;;
45236;SDS011;30973;51.442;3.580;2023-11-18T11:34:53;7.28;;;2.40;;
45236;SDS011;30973;51.442;3.580;2023-11-18T11:37:22;3.45;;;1.90;;
45236;SDS011;30973;51.442;3.580;2023-11-18T11:39:50;2.60;;;1.75;;
45236;SDS011;30973;51.442;3.580;2023-11-18T11:42:20;4.45;;;2.30;;
45236;SDS011;30973;51.442;3.580;2023-11-18T11:44:48;4.00;;;2.00;;
45236;SDS011;30973;51.442;3.580;2023-11-18T11:47:15;2.97;;;1.70;;
45236;SDS011;30973;51.442;3.580;2023-11-18T11:49:49;2.58;;;1.90;;
45236;SDS011;30973;51.442;3.580;2023-11-18T11:52:26;3.30;;;1.77;;
45236;SDS011;30973;51.442;3.580;2023-11-18T11:54:56;4.60;;;2.13;;
45236;SDS011;30973;51.442;3.580;2023-11-18T11:57:29;5.95;;;1.75;;
45236;SDS011;30973;51.442;3.580;2023-11-18T12:00:02;7.07;;;3.25;;
45236;SDS011;30973;51.442;3.580;2023-11-18T12:02:51;3.67;;;1.90;;
45236;SDS011;30973;51.442;3.580;2023-11-18T12:05:26;4.65;;;2.25;;
45236;SDS011;30973;51.442;3.580;2023-11-18T12:07:54;4.65;;;2.20;;
45236;SDS011;30973;51.442;3.580;2023-11-18T12:10:31;7.03;;;2.03;;
45236;SDS011;30973;51.442;3.580;2023-11-18T12:13:11;9.27;;;3.40;;
45236;SDS011;30973;51.442;3.580;2023-11-18T12:15:55;5.13;;;2.90;;
45236;SDS011;30973;51.442;3.580;2023-11-18T12:18:24;5.45;;;2.53;;
45236;SDS011;30973;51.442;3.580;2023-11-18T12:20:52;3.85;;;2.20;;
45236;SDS011;30973;51.442;3.580;2023-11-18T12:23:24;8.90;;;2.28;;
45236;SDS011;30973;51.442;3.580;2023-11-18T12:25:53;3.50;;;2.05;;
45236;SDS011;30973;51.442;3.580;2023-11-18T12:28:24;4.95;;;2.13;;
45236;SDS011;30973;51.442;3.580;2023-11-18T12:30:54;7.10;;;2.30;;
45236;SDS011;30973;51.442;3.580;2023-11-18T12:36:39;3.53;;;2.20;;
45236;SDS011;30973;51.442;3.580;2023-11-18T12:42:04;6.75;;;2.10;;
45236;SDS011;30973;51.442;3.580;2023-11-18T12:44:46;5.80;;;2.13;;
45236;SDS011;30973;51.442;3.580;2023-11-18T12:47:20;6.03;;;2.30;;
45236;SDS011;30973;51.442;3.580;2023-11-18T12:49:48;5.82;;;2.15;;
45236;SDS011;30973;51.442;3.580;2023-11-18T12:52:22;3.00;;;2.13;;
45236;SDS011;30973;51.442;3.580;2023-11-18T12:54:50;4.97;;;1.70;;
45236;SDS011;30973;51.442;3.580;2023-11-18T12:57:20;4.40;;;2.45;;
45236;SDS011;30973;51.442;3.580;2023-11-18T12:59:49;3.42;;;1.80;;
45236;SDS011;30973;51.442;3.580;2023-11-18T13:02:17;2.90;;;1.55;;
45236;SDS011;30973;51.442;3.580;2023-11-18T13:04:48;3.97;;;1.80;;
45236;SDS011;30973;51.442;3.580;2023-11-18T13:07:16;5.18;;;2.00;;
45236;SDS011;30973;51.442;3.580;2023-11-18T13:09:45;3.38;;;1.70;;
45236;SDS011;30973;51.442;3.580;2023-11-18T13:12:12;2.42;;;1.45;;
45236;SDS011;30973;51.442;3.580;2023-11-18T13:14:45;4.38;;;1.80;;
45236;SDS011;30973;51.442;3.580;2023-11-18T13:17:15;3.20;;;1.50;;
45236;SDS011;30973;51.442;3.580;2023-11-18T13:19:43;2.40;;;1.40;;
45236;SDS011;30973;51.442;3.580;2023-11-18T13:22:12;4.18;;;1.90;;
45236;SDS011;30973;51.442;3.580;2023-11-18T13:24:40;3.75;;;2.00;;
45236;SDS011;30973;51.442;3.580;2023-11-18T13:27:15;4.35;;;1.80;;
45236;SDS011;30973;51.442;3.580;2023-11-18T13:29:46;2.72;;;1.83;;
45236;SDS011;30973;51.442;3.580;2023-11-18T13:32:19;5.53;;;2.00;;
45236;SDS011;30973;51.442;3.580;2023-11-18T13:34:50;2.92;;;1.70;;
45236;SDS011;30973;51.442;3.580;2023-11-18T13:37:18;4.47;;;1.90;;
45236;SDS011;30973;51.442;3.580;2023-11-18T13:39:55;5.03;;;1.80;;
45236;SDS011;30973;51.442;3.580;2023-11-18T13:42:25;2.53;;;1.60;;
45236;SDS011;30973;51.442;3.580;2023-11-18T13:45:05;2.15;;;1.58;;
45236;SDS011;30973;51.442;3.580;2023-11-18T13:47:38;2.83;;;2.13;;
45236;SDS011;30973;51.442;3.580;2023-11-18T13:50:07;4.28;;;1.98;;
45236;SDS011;30973;51.442;3.580;2023-11-18T13:52:36;3.33;;;1.88;;
45236;SDS011;30973;51.442;3.580;2023-11-18T13:55:08;4.25;;;2.00;;
45236;SDS011;30973;51.442;3.580;2023-11-18T13:57:35;2.22;;;1.65;;
45236;SDS011;30973;51.442;3.580;2023-11-18T14:00:03;4.97;;;1.98;;
45236;SDS011;30973;51.442;3.580;2023-11-18T14:02:33;4.70;;;2.17;;
45236;SDS011;30973;51.442;3.580;2023-11-18T14:05:03;4.72;;;1.95;;
45236;SDS011;30973;51.442;3.580;2023-11-18T14:07:36;3.38;;;1.73;;
45236;SDS011;30973;51.442;3.580;2023-11-18T14:10:05;3.53;;;1.90;;
45236;SDS011;30973;51.442;3.580;2023-11-18T14:12:34;2.85;;;1.98;;
45236;SDS011;30973;51.442;3.580;2023-11-18T14:15:02;2.70;;;2.30;;
45236;SDS011;30973;51.442;3.580;2023-11-18T14:17:31;4.53;;;2.40;;
45236;SDS011;30973;51.442;3.580;2023-11-18T14:19:58;4.13;;;2.50;;
45236;SDS011;30973;51.442;3.580;2023-11-18T14:22:26;3.15;;;1.90;;
45236;SDS011;30973;51.442;3.580;2023-11-18T14:24:54;4.35;;;2.35;;
45236;SDS011;30973;51.442;3.580;2023-11-18T14:27:21;3.97;;;2.50;;
45236;SDS011;30973;51.442;3.580;2023-11-18T14:29:49;3.55;;;2.65;;
45236;SDS011;30973;51.442;3.580;2023-11-18T14:32:16;4.00;;;2.67;;
45236;SDS011;30973;51.442;3.580;2023-11-18T14:34:44;8.93;;;2.90;;
45236;SDS011;30973;51.442;3.580;2023-11-18T14:37:11;4.47;;;2.83;;
45236;SDS011;30973;51.442;3.580;2023-11-18T14:39:38;6.32;;;3.22;;
45236;SDS011;30973;51.442;3.580;2023-11-18T14:42:07;3.78;;;2.35;;
45236;SDS011;30973;51.442;3.580;2023-11-18T14:44:35;4.90;;;2.70;;
45236;SDS011;30973;51.442;3.580;2023-11-18T14:47:03;3.80;;;2.53;;
45236;SDS011;30973;51.442;3.580;2023-11-18T14:49:32;6.18;;;2.95;;
45236;SDS011;30973;51.442;3.580;2023-11-18T14:52:00;4.53;;;2.67;;
45236;SDS011;30973;51.442;3.580;2023-11-18T14:54:28;5.35;;;2.72;;
45236;SDS011;30973;51.442;3.580;2023-11-18T14:57:02;6.03;;;3.50;;
45236;SDS011;30973;51.442;3.580;2023-11-18T14:59:29;7.32;;;3.05;;
45236;SDS011;30973;51.442;3.580;2023-11-18T15:01:56;5.80;;;3.28;;
45236;SDS011;30973;51.442;3.580;2023-11-18T15:04:24;5.03;;;3.30;;
45236;SDS011;30973;51.442;3.580;2023-11-18T15:06:52;3.72;;;2.70;;
45236;SDS011;30973;51.442;3.580;2023-11-18T15:09:22;6.70;;;2.88;;
45236;SDS011;30973;51.442;3.580;2023-11-18T15:11:50;2.90;;;2.40;;
45236;SDS011;30973;51.442;3.580;2023-11-18T15:14:19;4.47;;;2.58;;
45236;SDS011;30973;51.442;3.580;2023-11-18T15:16:47;3.10;;;2.80;;